Terminal Aerodrome Forecast
Issued by NWS Amarillo, TX

Home | Current Version | Previous Version | Text Only | Print | Product List | Glossary On
Versions: 1 2 3 4 5 6 7 8 9 10 11 12 13 14 15 16 17 18 19 20 21 22 23
000
FTUS44 KAMA 222300
TAFDHT
TAF
KDHT 222320Z 2300/2324 17018KT P6SM SCT040 BKN200
     FM230400 15015KT P6SM OVC020
     FM230800 16014KT 6SM -SHRA VCTS SCT004 OVC015CB
     FM231400 17020G30KT P6SM SCT030 BKN200=

USA.gov is the U.S. government's official web portal to all federal, state and local government web resources and services.